createdAt,value
2022-07-25T00:00:27.638Z,46.91
2022-07-25T00:00:59.107Z,46.54
2022-07-25T00:01:31.943Z,46.63
2022-07-25T00:02:03.622Z,46.54
2022-07-25T00:02:35.084Z,46.98
2022-07-25T00:03:06.598Z,46.48
2022-07-25T00:03:42.333Z,46.89
2022-07-25T00:04:14.869Z,46.74
2022-07-25T00:04:46.488Z,46.86
2022-07-25T00:05:18.118Z,46.59
2022-07-25T00:05:49.624Z,46.60
2022-07-25T00:06:21.061Z,46.86
2022-07-25T00:06:52.542Z,46.94
2022-07-25T00:07:24.002Z,46.60
2022-07-25T00:07:55.433Z,46.72
2022-07-25T00:08:26.923Z,46.75
2022-07-25T00:08:58.342Z,46.59
2022-07-25T00:09:29.879Z,46.85
2022-07-25T00:10:01.328Z,46.60
2022-07-25T00:10:32.785Z,46.59
2022-07-25T00:11:04.403Z,46.66
2022-07-25T00:11:35.849Z,46.56
2022-07-25T00:12:07.296Z,46.70
2022-07-25T00:12:39.203Z,46.67
2022-07-25T00:13:10.667Z,46.57
2022-07-25T00:13:42.310Z,46.54
2022-07-25T00:14:13.790Z,46.85
2022-07-25T00:14:45.293Z,46.79
2022-07-25T00:15:16.833Z,46.70
2022-07-25T00:15:48.439Z,46.90
2022-07-25T00:16:20.236Z,46.54
2022-07-25T00:16:51.739Z,46.59
2022-07-25T00:18:01.415Z,46.57
2022-07-25T00:18:32.942Z,46.86
2022-07-25T00:19:04.355Z,46.58
2022-07-25T00:19:35.726Z,46.62
2022-07-25T00:20:07.141Z,46.53
2022-07-25T00:20:38.485Z,46.60
2022-07-25T00:21:09.801Z,46.91
2022-07-25T00:21:41.191Z,46.81
2022-07-25T00:22:12.577Z,46.56
2022-07-25T00:22:44.071Z,46.77
2022-07-25T00:23:15.430Z,46.54
2022-07-25T00:23:46.791Z,46.73
2022-07-25T00:24:18.130Z,46.53
2022-07-25T00:24:49.514Z,46.59
2022-07-25T00:25:20.850Z,46.83
2022-07-25T00:25:52.245Z,46.55
2022-07-25T00:26:23.579Z,46.89
2022-07-25T00:26:54.979Z,46.64
2022-07-25T00:27:26.476Z,46.89
2022-07-25T00:27:57.819Z,46.89
2022-07-25T00:28:29.157Z,46.66
2022-07-25T00:29:00.498Z,46.73
2022-07-25T00:29:31.875Z,46.95
2022-07-25T00:30:03.190Z,46.93
2022-07-25T00:30:34.552Z,46.61
2022-07-25T00:31:05.924Z,46.66
2022-07-25T00:31:37.529Z,46.67
2022-07-25T00:32:09.015Z,46.94
2022-07-25T00:32:40.348Z,46.58
2022-07-25T00:33:11.739Z,46.73
2022-07-25T00:33:43.174Z,46.99
2022-07-25T00:34:14.502Z,46.84
2022-07-25T00:34:45.777Z,46.68
2022-07-25T00:35:17.195Z,46.92
2022-07-25T00:35:48.563Z,46.63
2022-07-25T00:36:19.891Z,46.89
2022-07-25T00:36:51.317Z,47.02
2022-07-25T00:37:22.639Z,46.96
2022-07-25T00:37:54.031Z,46.91
2022-07-25T00:38:25.413Z,46.91
2022-07-25T00:38:56.797Z,46.65
2022-07-25T00:39:28.183Z,47.01
2022-07-25T00:39:59.567Z,46.98
2022-07-25T00:40:30.900Z,46.78
2022-07-25T00:41:02.329Z,46.64
2022-07-25T00:41:33.704Z,46.94
2022-07-25T00:42:05.058Z,46.66
2022-07-25T00:42:36.430Z,46.67
2022-07-25T00:43:07.838Z,46.61
2022-07-25T00:43:39.167Z,47.03
2022-07-25T00:44:10.505Z,46.73
2022-07-25T00:44:41.898Z,46.64
2022-07-25T00:45:13.282Z,46.60
2022-07-25T00:45:44.815Z,46.77
2022-07-25T00:46:18.858Z,46.94
2022-07-25T00:46:50.577Z,46.67
2022-07-25T00:47:21.966Z,46.99
2022-07-25T00:47:53.310Z,46.78
2022-07-25T00:48:24.666Z,46.68
2022-07-25T00:48:56.119Z,46.67
2022-07-25T00:49:28.042Z,46.67
2022-07-25T00:49:59.439Z,46.93
2022-07-25T00:50:30.780Z,46.93
2022-07-25T00:51:02.156Z,46.68
2022-07-25T00:51:33.465Z,46.69
2022-07-25T00:52:04.863Z,46.72
2022-07-25T00:52:36.331Z,46.89
2022-07-25T00:53:07.753Z,46.98
2022-07-25T00:53:39.087Z,46.65
2022-07-25T00:54:10.428Z,46.94
2022-07-25T00:54:41.718Z,46.66
2022-07-25T00:55:13.063Z,46.90
2022-07-25T00:55:44.474Z,46.89
2022-07-25T00:56:15.799Z,46.69
2022-07-25T00:56:47.137Z,46.66
2022-07-25T00:57:18.603Z,47.00
2022-07-25T00:57:49.909Z,46.89
2022-07-25T00:58:21.356Z,46.68
2022-07-25T00:58:52.879Z,46.79
2022-07-25T00:59:24.248Z,46.82
2022-07-25T00:59:55.603Z,46.67
2022-07-25T01:00:26.899Z,46.95
2022-07-25T01:00:58.270Z,46.68
2022-07-25T01:01:29.752Z,46.84
2022-07-25T01:02:01.226Z,46.96
2022-07-25T01:02:35.592Z,47.01
2022-07-25T01:03:07.077Z,46.90
2022-07-25T01:03:38.551Z,46.74
2022-07-25T01:04:09.951Z,46.63
2022-07-25T01:04:41.266Z,46.66
2022-07-25T01:05:12.665Z,46.69
2022-07-25T01:05:43.979Z,46.66
2022-07-25T01:06:15.407Z,46.81
2022-07-25T01:06:46.847Z,46.97
2022-07-25T01:07:18.245Z,46.98
2022-07-25T01:07:49.654Z,46.67
2022-07-25T01:08:21.017Z,46.56
2022-07-25T01:08:52.343Z,46.87
2022-07-25T01:09:23.665Z,46.61
2022-07-25T01:09:55.016Z,46.80
2022-07-25T01:10:26.385Z,46.82
2022-07-25T01:10:57.737Z,46.67
2022-07-25T01:11:29.164Z,46.91
2022-07-25T01:12:00.632Z,46.93
2022-07-25T01:12:32.015Z,46.61
2022-07-25T01:13:03.399Z,46.48
2022-07-25T01:13:34.758Z,46.89
2022-07-25T01:14:06.549Z,46.50
2022-07-25T01:14:38.296Z,46.48
2022-07-25T01:15:09.622Z,46.89
2022-07-25T01:15:41.064Z,46.53
2022-07-25T01:16:12.545Z,46.70
2022-07-25T01:16:43.909Z,46.47
2022-07-25T01:17:15.207Z,46.66
2022-07-25T01:17:46.549Z,46.48
2022-07-25T01:18:17.903Z,46.67
2022-07-25T01:18:49.282Z,46.43
2022-07-25T01:19:20.790Z,46.70
2022-07-25T01:19:52.152Z,46.40
2022-07-25T01:20:23.486Z,46.74
2022-07-25T01:20:54.841Z,46.69
2022-07-25T01:21:26.214Z,46.42
2022-07-25T01:21:57.596Z,46.41
2022-07-25T01:22:28.988Z,46.38
2022-07-25T01:23:00.340Z,46.42
2022-07-25T01:23:31.695Z,46.36
2022-07-25T01:24:03.424Z,46.44
2022-07-25T01:24:35.053Z,46.33
2022-07-25T01:25:06.445Z,46.56
2022-07-25T01:25:37.797Z,46.41
2022-07-25T01:26:09.142Z,46.52
2022-07-25T01:26:40.481Z,46.66
2022-07-25T01:27:17.499Z,46.64
2022-07-25T01:27:54.868Z,46.30
2022-07-25T01:28:26.742Z,46.42
2022-07-25T01:28:58.007Z,46.50
2022-07-25T01:29:29.424Z,46.60
2022-07-25T01:30:00.763Z,46.46
2022-07-25T01:30:32.093Z,46.66
2022-07-25T01:31:03.510Z,46.53
2022-07-25T01:31:35.075Z,46.57
2022-07-25T01:32:06.440Z,46.68
2022-07-25T01:32:37.853Z,46.44
2022-07-25T01:33:09.198Z,46.40
2022-07-25T01:33:40.528Z,46.48
2022-07-25T01:34:11.892Z,46.33
2022-07-25T01:34:43.246Z,46.41
2022-07-25T01:35:14.620Z,46.27
2022-07-25T01:35:45.947Z,46.18
2022-07-25T01:36:17.299Z,46.22
2022-07-25T01:36:48.737Z,46.50
2022-07-25T01:37:20.144Z,46.34
2022-07-25T01:37:51.482Z,46.24
2022-07-25T01:38:22.818Z,46.51
2022-07-25T01:38:54.374Z,46.51
2022-07-25T01:39:25.843Z,46.27
2022-07-25T01:39:57.199Z,46.23
2022-07-25T01:40:28.510Z,46.23
2022-07-25T01:40:59.804Z,46.36
2022-07-25T01:41:31.189Z,46.49
2022-07-25T01:42:02.571Z,46.17
2022-07-25T01:42:33.879Z,46.44
2022-07-25T01:43:05.231Z,46.49
2022-07-25T01:43:36.543Z,46.47
2022-07-25T01:44:08.221Z,46.15
2022-07-25T01:44:39.715Z,46.14
2022-07-25T01:45:11.081Z,46.47
2022-07-25T01:45:42.417Z,46.39
2022-07-25T01:46:13.847Z,46.42
2022-07-25T01:46:45.407Z,46.33
2022-07-25T01:47:16.749Z,46.20
2022-07-25T01:47:48.012Z,46.18
2022-07-25T01:48:19.919Z,46.12
2022-07-25T01:48:51.475Z,46.24
2022-07-25T01:49:22.899Z,46.42
2022-07-25T01:49:54.337Z,46.44
2022-07-25T01:50:25.654Z,46.14
2022-07-25T01:50:57.044Z,46.40
2022-07-25T01:51:28.540Z,46.27
2022-07-25T01:51:59.869Z,46.27
2022-07-25T01:52:31.228Z,46.36
2022-07-25T01:53:02.751Z,46.14
2022-07-25T01:53:34.110Z,46.09
2022-07-25T01:54:09.041Z,46.35
2022-07-25T01:54:41.949Z,46.18
2022-07-25T01:55:15.004Z,46.43
2022-07-25T01:55:46.426Z,46.16
2022-07-25T01:56:18.015Z,46.13
2022-07-25T01:56:53.339Z,46.12
2022-07-25T01:57:26.589Z,46.35
2022-07-25T01:58:02.212Z,46.18
2022-07-25T01:58:33.799Z,46.14
2022-07-25T01:59:05.163Z,46.41
2022-07-25T01:59:36.500Z,46.13
2022-07-25T02:00:07.823Z,46.07
2022-07-25T02:00:40.141Z,46.23
2022-07-25T02:01:11.552Z,46.04
2022-07-25T02:01:42.963Z,46.43
2022-07-25T02:02:14.386Z,46.06
2022-07-25T02:02:45.716Z,46.12
2022-07-25T02:03:17.043Z,46.08
2022-07-25T02:03:48.396Z,46.05
2022-07-25T02:04:19.781Z,46.07
2022-07-25T02:04:51.241Z,46.08
2022-07-25T02:05:22.647Z,46.06
2022-07-25T02:05:54.072Z,46.20
2022-07-25T02:06:25.377Z,46.06
2022-07-25T02:06:56.705Z,46.09
2022-07-25T02:07:28.124Z,46.39
2022-07-25T02:07:59.462Z,46.17
2022-07-25T02:08:30.866Z,46.34
2022-07-25T02:09:02.223Z,46.15
2022-07-25T02:09:33.591Z,46.41
2022-07-25T02:10:04.953Z,46.26
2022-07-25T02:10:36.373Z,46.26
2022-07-25T02:11:08.681Z,46.10
2022-07-25T02:11:40.088Z,46.05
2022-07-25T02:12:11.493Z,46.31
2022-07-25T02:12:43.050Z,46.38
2022-07-25T02:13:14.443Z,46.01
2022-07-25T02:13:45.866Z,46.31
2022-07-25T02:14:17.223Z,46.05
2022-07-25T02:14:48.746Z,46.32
2022-07-25T02:15:20.098Z,46.38
2022-07-25T02:15:51.427Z,46.33
2022-07-25T02:16:28.772Z,46.01
2022-07-25T02:17:00.629Z,46.31
2022-07-25T02:17:31.975Z,46.26
2022-07-25T02:18:03.350Z,46.34
2022-07-25T02:18:34.757Z,46.01
2022-07-25T02:19:06.097Z,46.30
2022-07-25T02:19:37.389Z,46.32
2022-07-25T02:20:08.781Z,45.98
2022-07-25T02:20:40.153Z,46.05
2022-07-25T02:21:14.043Z,46.03
2022-07-25T02:21:46.208Z,45.96
2022-07-25T02:22:17.643Z,46.04
2022-07-25T02:22:49.016Z,46.25
2022-07-25T02:23:20.396Z,46.22
2022-07-25T02:23:51.712Z,46.33
2022-07-25T02:24:23.030Z,46.24
2022-07-25T02:24:54.372Z,46.26
2022-07-25T02:25:25.744Z,46.00
2022-07-25T02:25:57.049Z,46.01
2022-07-25T02:26:28.451Z,45.98
2022-07-25T02:26:59.830Z,46.14
2022-07-25T02:27:31.263Z,46.26
2022-07-25T02:28:02.706Z,46.27
2022-07-25T02:28:34.028Z,45.97
2022-07-25T02:29:05.408Z,46.20
2022-07-25T02:29:36.760Z,46.22
2022-07-25T02:30:08.073Z,46.16
2022-07-25T02:30:39.511Z,45.97
2022-07-25T02:31:11.086Z,45.99
2022-07-25T02:31:42.463Z,46.17
2022-07-25T02:32:13.878Z,46.19
2022-07-25T02:32:45.298Z,46.01
2022-07-25T02:33:16.982Z,46.00
2022-07-25T02:33:48.490Z,46.29
2022-07-25T02:34:19.833Z,45.99
2022-07-25T02:34:51.209Z,46.01
2022-07-25T02:35:22.572Z,46.30
2022-07-25T02:35:53.978Z,46.08
2022-07-25T02:36:25.412Z,45.97
2022-07-25T02:36:56.777Z,46.24
2022-07-25T02:37:28.255Z,46.36
2022-07-25T02:37:59.615Z,46.08
2022-07-25T02:38:30.954Z,46.22
2022-07-25T02:39:02.274Z,46.06
2022-07-25T02:39:33.617Z,46.06
2022-07-25T02:40:04.935Z,46.05
2022-07-25T02:40:36.394Z,46.27
2022-07-25T02:41:07.757Z,46.24
2022-07-25T02:41:39.199Z,46.22
2022-07-25T02:42:10.579Z,46.17
2022-07-25T02:42:41.890Z,46.06
2022-07-25T02:43:13.237Z,46.35
2022-07-25T02:43:47.044Z,46.27
2022-07-25T02:44:18.630Z,46.04
2022-07-25T02:44:49.947Z,46.22
2022-07-25T02:45:21.367Z,46.09
2022-07-25T02:45:52.760Z,46.31
2022-07-25T02:46:24.228Z,46.25
2022-07-25T02:46:55.636Z,46.08
2022-07-25T02:47:26.971Z,46.01
2022-07-25T02:47:58.273Z,46.25
2022-07-25T02:48:29.708Z,45.99
2022-07-25T02:49:01.188Z,46.33
2022-07-25T02:49:32.532Z,46.12
2022-07-25T02:50:03.954Z,46.01
2022-07-25T02:50:35.304Z,46.20
2022-07-25T02:51:06.678Z,46.14
2022-07-25T02:51:38.022Z,46.31
2022-07-25T02:52:09.405Z,45.95
2022-07-25T02:52:40.851Z,46.17
2022-07-25T02:53:12.154Z,46.25
2022-07-25T02:53:59.284Z,45.92
2022-07-25T02:54:30.777Z,46.26
2022-07-25T02:55:06.101Z,46.02
2022-07-25T02:55:40.955Z,46.14
2022-07-25T02:56:12.407Z,45.96
2022-07-25T02:56:45.658Z,46.35
2022-07-25T02:57:17.058Z,46.13
2022-07-25T02:57:48.512Z,45.98
2022-07-25T02:58:19.836Z,46.13
2022-07-25T02:58:51.183Z,45.97
2022-07-25T02:59:22.575Z,46.16
2022-07-25T02:59:53.928Z,46.19
2022-07-25T03:00:25.276Z,46.07
2022-07-25T03:00:56.829Z,45.97
2022-07-25T03:01:28.322Z,46.24
2022-07-25T03:01:59.673Z,46.22
2022-07-25T03:02:31.039Z,46.00
2022-07-25T03:03:02.388Z,46.26
2022-07-25T03:03:35.666Z,45.99
2022-07-25T03:04:07.475Z,46.16
2022-07-25T03:04:39.165Z,46.18
2022-07-25T03:05:10.540Z,45.97
2022-07-25T03:05:41.895Z,46.18
2022-07-25T03:06:13.242Z,45.94
2022-07-25T03:06:44.603Z,46.19
2022-07-25T03:07:16.109Z,46.05
2022-07-25T03:07:47.630Z,45.92
2022-07-25T03:08:19.154Z,46.07
2022-07-25T03:08:50.538Z,45.90
2022-07-25T03:09:21.925Z,45.96
2022-07-25T03:09:53.294Z,45.94
2022-07-25T03:10:24.651Z,46.13
2022-07-25T03:10:55.985Z,45.90
2022-07-25T03:11:27.308Z,45.90
2022-07-25T03:11:58.669Z,46.23
2022-07-25T03:12:29.992Z,45.96
2022-07-25T03:13:01.378Z,46.25
2022-07-25T03:13:32.790Z,46.21
2022-07-25T03:14:04.734Z,45.90
2022-07-25T03:14:36.419Z,46.29
2022-07-25T03:15:07.781Z,46.12
2022-07-25T03:15:39.187Z,45.96
2022-07-25T03:16:10.715Z,45.95
2022-07-25T03:16:42.137Z,46.15
2022-07-25T03:17:13.595Z,46.20
2022-07-25T03:17:45.056Z,45.93
2022-07-25T03:18:16.461Z,45.87
2022-07-25T03:18:47.846Z,45.90
2022-07-25T03:19:19.199Z,46.17
2022-07-25T03:19:50.768Z,46.18
2022-07-25T03:20:22.081Z,45.98
2022-07-25T03:20:53.478Z,46.06
2022-07-25T03:21:24.922Z,46.15
2022-07-25T03:21:56.270Z,45.75
2022-07-25T03:22:27.635Z,45.82
2022-07-25T03:22:59.039Z,45.90
2022-07-25T03:23:30.428Z,45.82
2022-07-25T03:24:01.795Z,46.07
2022-07-25T03:24:33.116Z,45.76
2022-07-25T03:25:04.436Z,45.84
2022-07-25T03:25:35.779Z,45.87
2022-07-25T03:26:07.156Z,45.86
2022-07-25T03:26:38.465Z,45.79
2022-07-25T03:27:09.784Z,45.75
2022-07-25T03:27:41.239Z,45.90
2022-07-25T03:28:12.757Z,45.83
2022-07-25T03:28:44.165Z,45.88
2022-07-25T03:29:15.499Z,46.01
2022-07-25T03:29:46.866Z,45.74
2022-07-25T03:30:18.268Z,45.65
2022-07-25T03:30:49.662Z,45.78
2022-07-25T03:31:21.134Z,45.84
2022-07-25T03:31:52.580Z,45.75
2022-07-25T03:32:24.031Z,45.75
2022-07-25T03:32:55.430Z,45.85
2022-07-25T03:33:26.842Z,45.80
2022-07-25T03:33:58.200Z,46.01
2022-07-25T03:34:29.556Z,45.83
2022-07-25T03:35:00.892Z,46.01
2022-07-25T03:35:32.314Z,45.67
2022-07-25T03:36:03.726Z,45.75
2022-07-25T03:36:35.090Z,46.02
2022-07-25T03:37:06.401Z,45.75
2022-07-25T03:37:37.725Z,46.00
2022-07-25T03:38:09.065Z,45.76
2022-07-25T03:38:40.393Z,45.80
2022-07-25T03:39:11.849Z,45.98
2022-07-25T03:39:43.194Z,45.86
2022-07-25T03:40:14.530Z,45.81
2022-07-25T03:40:47.379Z,45.70
2022-07-25T03:41:19.063Z,45.75
2022-07-25T03:41:50.492Z,46.03
2022-07-25T03:42:26.535Z,46.05
2022-07-25T03:42:58.247Z,46.07
2022-07-25T03:43:29.688Z,46.01
2022-07-25T03:44:01.078Z,45.76
2022-07-25T03:44:32.501Z,45.82
2022-07-25T03:45:03.902Z,46.01
2022-07-25T03:45:35.351Z,45.92
2022-07-25T03:46:06.868Z,45.73
2022-07-25T03:46:38.355Z,45.98
2022-07-25T03:47:09.740Z,45.90
2022-07-25T03:47:52.284Z,45.70
2022-07-25T03:48:23.702Z,45.74
2022-07-25T03:48:55.231Z,45.73
2022-07-25T03:49:26.682Z,45.80
2022-07-25T03:49:58.106Z,45.71
2022-07-25T03:50:29.473Z,45.70
2022-07-25T03:51:06.416Z,45.82
2022-07-25T03:51:38.337Z,46.01
2022-07-25T03:52:09.725Z,46.00
2022-07-25T03:52:41.205Z,45.71
2022-07-25T03:53:12.551Z,45.96
2022-07-25T03:53:43.937Z,45.75
2022-07-25T03:54:15.308Z,45.68
2022-07-25T03:54:46.747Z,46.01
2022-07-25T03:55:18.117Z,45.97
2022-07-25T03:55:49.765Z,46.01
2022-07-25T03:56:21.131Z,45.94
2022-07-25T03:56:52.465Z,45.76
2022-07-25T03:57:23.773Z,45.67
2022-07-25T03:57:55.054Z,45.93
2022-07-25T03:58:26.347Z,45.88
2022-07-25T03:58:57.665Z,45.89
2022-07-25T03:59:29.029Z,45.66
2022-07-25T04:00:00.369Z,45.72
2022-07-25T04:00:31.767Z,46.01
2022-07-25T04:01:03.094Z,45.95
2022-07-25T04:01:35.719Z,45.72
2022-07-25T04:02:07.254Z,45.91
2022-07-25T04:02:38.765Z,45.69
2022-07-25T04:03:10.114Z,45.94
2022-07-25T04:03:41.433Z,45.67
2022-07-25T04:04:15.647Z,45.74
2022-07-25T04:04:47.017Z,45.94
2022-07-25T04:05:18.338Z,45.65
2022-07-25T04:05:49.744Z,45.99
2022-07-25T04:06:21.108Z,45.62
2022-07-25T04:06:52.438Z,45.91
2022-07-25T04:07:23.792Z,45.63
2022-07-25T04:07:55.130Z,45.90
2022-07-25T04:08:26.516Z,45.63
2022-07-25T04:08:57.899Z,45.90
2022-07-25T04:09:31.053Z,45.94
2022-07-25T04:10:04.816Z,45.67
2022-07-25T04:10:36.212Z,45.60
2022-07-25T04:11:07.633Z,45.87
2022-07-25T04:11:38.897Z,45.91
2022-07-25T04:12:10.227Z,45.62
2022-07-25T04:12:41.519Z,45.67
2022-07-25T04:13:12.822Z,45.66
2022-07-25T04:13:44.092Z,45.60
2022-07-25T04:14:15.430Z,45.64
2022-07-25T04:14:46.791Z,45.97
2022-07-25T04:15:18.089Z,45.57
2022-07-25T04:15:49.470Z,45.70
2022-07-25T04:16:22.528Z,45.62
2022-07-25T04:16:54.292Z,45.58
2022-07-25T04:17:25.844Z,45.56
2022-07-25T04:17:57.302Z,45.92
2022-07-25T04:18:28.999Z,45.58
2022-07-25T04:19:01.596Z,45.89
2022-07-25T04:19:33.084Z,45.90
2022-07-25T04:20:04.479Z,45.88
2022-07-25T04:20:38.040Z,45.91
2022-07-25T04:21:09.399Z,45.63
2022-07-25T04:21:40.815Z,45.58
2022-07-25T04:22:12.180Z,45.55
2022-07-25T04:22:46.762Z,45.74
2022-07-25T04:23:18.680Z,45.68
2022-07-25T04:23:50.141Z,45.55
2022-07-25T04:24:21.648Z,45.91
2022-07-25T04:24:52.976Z,45.60
2022-07-25T04:25:24.349Z,45.56
2022-07-25T04:25:55.723Z,45.80
2022-07-25T04:26:27.134Z,45.83
2022-07-25T04:26:58.639Z,45.92
2022-07-25T04:27:29.989Z,45.60
2022-07-25T04:28:01.350Z,45.79
2022-07-25T04:28:32.868Z,45.77
2022-07-25T04:29:04.268Z,45.66
2022-07-25T04:29:35.625Z,45.84
2022-07-25T04:30:06.966Z,45.81
2022-07-25T04:30:38.380Z,45.51
2022-07-25T04:31:09.710Z,45.79
2022-07-25T04:31:41.124Z,45.83
2022-07-25T04:32:12.578Z,45.55
2022-07-25T04:32:43.970Z,45.85
2022-07-25T04:33:15.322Z,45.62
2022-07-25T04:33:46.699Z,45.49
2022-07-25T04:34:18.025Z,45.75
2022-07-25T04:34:49.381Z,45.56
2022-07-25T04:35:20.746Z,45.79
2022-07-25T04:35:52.327Z,45.54
2022-07-25T04:36:23.715Z,45.90
2022-07-25T04:36:55.077Z,45.61
2022-07-25T04:37:26.462Z,45.59
2022-07-25T04:37:57.819Z,45.83
2022-07-25T04:38:29.191Z,45.84
2022-07-25T04:39:00.548Z,45.57
2022-07-25T04:39:31.862Z,45.63
2022-07-25T04:40:03.273Z,45.57
2022-07-25T04:40:34.628Z,45.56
2022-07-25T04:41:05.974Z,45.59
2022-07-25T04:41:37.294Z,45.71
2022-07-25T04:42:08.602Z,45.49
2022-07-25T04:42:40.035Z,45.65
2022-07-25T04:43:11.324Z,45.82
2022-07-25T04:43:48.268Z,45.87
2022-07-25T04:44:20.151Z,45.54
2022-07-25T04:44:51.524Z,45.83
2022-07-25T04:45:22.982Z,45.89
2022-07-25T04:45:54.368Z,45.86
2022-07-25T04:46:25.899Z,45.71
2022-07-25T04:46:57.265Z,45.88
2022-07-25T04:47:28.574Z,45.54
2022-07-25T04:47:59.985Z,45.82
2022-07-25T04:48:31.374Z,45.80
2022-07-25T04:49:02.845Z,45.87
2022-07-25T04:49:34.222Z,45.85
2022-07-25T04:50:05.634Z,45.59
2022-07-25T04:50:37.027Z,45.62
2022-07-25T04:51:08.376Z,45.62
2022-07-25T04:51:39.692Z,45.53
2022-07-25T04:52:11.097Z,45.55
2022-07-25T04:52:42.484Z,45.84
2022-07-25T04:53:13.881Z,45.58
2022-07-25T04:53:45.239Z,45.66
2022-07-25T04:54:16.569Z,45.59
2022-07-25T04:54:47.926Z,45.85
2022-07-25T04:55:19.228Z,45.84
2022-07-25T04:55:50.694Z,45.79
2022-07-25T04:56:22.072Z,45.63
2022-07-25T04:56:53.472Z,45.69
2022-07-25T04:57:24.814Z,45.54
2022-07-25T04:57:56.113Z,45.81
2022-07-25T04:58:27.461Z,45.89
2022-07-25T04:59:04.687Z,45.48
2022-07-25T04:59:37.960Z,45.91
2022-07-25T05:00:09.392Z,45.90
2022-07-25T05:00:40.828Z,45.84
2022-07-25T05:01:12.376Z,45.84
2022-07-25T05:01:43.951Z,45.85
2022-07-25T05:02:15.380Z,45.84
2022-07-25T05:02:46.799Z,45.86
2022-07-25T05:03:18.136Z,45.34
2022-07-25T05:03:50.132Z,45.85
2022-07-25T05:04:22.132Z,45.58
2022-07-25T05:04:53.538Z,45.57
2022-07-25T05:05:24.877Z,45.87
2022-07-25T05:05:56.250Z,45.83
2022-07-25T05:06:27.588Z,45.82
2022-07-25T05:06:58.973Z,45.59
2022-07-25T05:07:30.311Z,45.80
2022-07-25T05:08:01.623Z,45.82
2022-07-25T05:08:33.015Z,45.55
2022-07-25T05:09:04.384Z,45.81
2022-07-25T05:09:35.753Z,45.54
2022-07-25T05:10:07.110Z,45.56
2022-07-25T05:10:38.473Z,45.83
2022-07-25T05:11:09.783Z,45.83
2022-07-25T05:11:46.787Z,45.86
2022-07-25T05:12:19.290Z,45.94
2022-07-25T05:12:50.613Z,45.51
2022-07-25T05:13:21.941Z,45.68
2022-07-25T05:13:53.356Z,45.54
2022-07-25T05:14:24.718Z,45.51
2022-07-25T05:14:56.095Z,45.92
2022-07-25T05:15:27.466Z,45.77
2022-07-25T05:15:58.848Z,45.56
2022-07-25T05:16:30.246Z,45.50
2022-07-25T05:17:01.623Z,45.77
2022-07-25T05:17:33.005Z,45.58
2022-07-25T05:18:04.298Z,45.77
2022-07-25T05:18:35.660Z,45.75
2022-07-25T05:19:06.954Z,45.55
2022-07-25T05:19:38.322Z,45.88
2022-07-25T05:20:09.750Z,45.64
2022-07-25T05:20:41.109Z,45.83
2022-07-25T05:21:12.405Z,45.58
2022-07-25T05:21:43.765Z,45.80
2022-07-25T05:22:15.106Z,45.82
2022-07-25T05:22:46.610Z,45.86
2022-07-25T05:23:18.027Z,45.68
2022-07-25T05:23:49.390Z,45.82
2022-07-25T05:24:20.833Z,45.54
2022-07-25T05:24:52.187Z,45.57
2022-07-25T05:25:23.585Z,45.76
2022-07-25T05:25:54.963Z,45.57
2022-07-25T05:26:26.277Z,45.55
2022-07-25T05:26:57.787Z,45.67
2022-07-25T05:27:29.144Z,45.59
2022-07-25T05:28:00.443Z,45.74
2022-07-25T05:28:31.744Z,45.85
2022-07-25T05:29:03.104Z,45.62
2022-07-25T05:29:34.438Z,45.92
2022-07-25T05:30:05.800Z,45.62
2022-07-25T05:30:39.987Z,45.62
2022-07-25T05:31:11.577Z,45.54
2022-07-25T05:31:43.157Z,45.84
2022-07-25T05:32:14.542Z,45.56
2022-07-25T05:32:45.911Z,45.72
2022-07-25T05:33:17.260Z,45.55
2022-07-25T05:33:48.650Z,45.58
2022-07-25T05:34:20.069Z,45.81
2022-07-25T05:34:51.479Z,45.54
2022-07-25T05:35:22.829Z,45.83
2022-07-25T05:35:54.315Z,45.56
2022-07-25T05:36:25.740Z,45.71
2022-07-25T05:36:57.117Z,45.82
2022-07-25T05:37:28.426Z,45.77
2022-07-25T05:37:59.748Z,45.56
2022-07-25T05:38:31.114Z,45.84
2022-07-25T05:39:02.522Z,45.91
2022-07-25T05:39:33.886Z,45.51
2022-07-25T05:40:05.206Z,45.57
2022-07-25T05:40:36.507Z,45.55
2022-07-25T05:41:07.888Z,45.57
2022-07-25T05:41:39.203Z,45.78
2022-07-25T05:42:10.538Z,45.83
2022-07-25T05:42:41.856Z,45.68
2022-07-25T05:43:13.229Z,45.86
2022-07-25T05:43:44.554Z,45.58
2022-07-25T05:44:15.951Z,45.53
2022-07-25T05:44:47.283Z,45.58
2022-07-25T05:45:18.723Z,45.75
2022-07-25T05:45:50.129Z,45.79
2022-07-25T05:46:21.544Z,45.59
2022-07-25T05:46:53.120Z,45.61
2022-07-25T05:47:24.551Z,45.90
2022-07-25T05:47:55.997Z,45.47
2022-07-25T05:48:27.485Z,45.47
2022-07-25T05:48:58.931Z,45.82
2022-07-25T05:49:30.338Z,45.58
2022-07-25T05:50:01.690Z,45.51
2022-07-25T05:50:33.093Z,45.62
2022-07-25T05:51:04.467Z,45.58
2022-07-25T05:51:35.862Z,45.90
2022-07-25T05:52:12.532Z,45.71
2022-07-25T05:52:44.683Z,45.76
2022-07-25T05:53:16.066Z,45.77
2022-07-25T05:53:47.533Z,45.69
2022-07-25T05:54:18.978Z,45.97
2022-07-25T05:54:50.349Z,45.60
2022-07-25T05:55:21.713Z,45.63
2022-07-25T05:55:53.335Z,45.88
2022-07-25T05:56:24.777Z,45.59
2022-07-25T05:56:56.136Z,45.62
2022-07-25T05:57:27.585Z,45.54
2022-07-25T05:57:58.931Z,45.78
2022-07-25T05:58:30.363Z,45.75
2022-07-25T05:59:01.775Z,45.59
2022-07-25T05:59:33.165Z,45.78
2022-07-25T06:00:04.486Z,45.88
2022-07-25T06:00:35.866Z,45.82
2022-07-25T06:01:07.242Z,45.82
2022-07-25T06:01:38.628Z,45.55
2022-07-25T06:02:10.158Z,45.81
2022-07-25T06:02:41.747Z,45.83
2022-07-25T06:03:13.260Z,45.82
2022-07-25T06:03:44.766Z,45.85
2022-07-25T06:04:16.151Z,45.86
2022-07-25T06:04:47.571Z,45.77
2022-07-25T06:05:19.054Z,45.66
2022-07-25T06:05:50.482Z,45.55
2022-07-25T06:06:21.845Z,45.75
2022-07-25T06:06:53.211Z,45.51
2022-07-25T06:07:24.653Z,45.83
2022-07-25T06:07:56.019Z,45.59
2022-07-25T06:08:27.395Z,45.76
2022-07-25T06:08:59.129Z,45.55
2022-07-25T06:09:31.317Z,45.81
2022-07-25T06:10:02.736Z,45.50
2022-07-25T06:10:34.227Z,45.64
2022-07-25T06:11:07.079Z,45.83
2022-07-25T06:11:50.979Z,45.82
2022-07-25T06:12:27.559Z,45.59
2022-07-25T06:12:58.901Z,45.49
2022-07-25T06:13:30.903Z,45.56
2022-07-25T06:14:06.280Z,45.80
2022-07-25T06:14:41.175Z,45.83
2022-07-25T06:15:19.220Z,45.61
2022-07-25T06:15:54.588Z,45.60
2022-07-25T06:16:26.098Z,45.87
2022-07-25T06:16:57.543Z,45.50
2022-07-25T06:17:32.347Z,45.89
2022-07-25T06:18:04.256Z,45.63
2022-07-25T06:18:35.651Z,45.58
2022-07-25T06:19:47.775Z,45.63
2022-07-25T06:20:19.348Z,45.61
2022-07-25T06:20:50.873Z,45.81
2022-07-25T06:21:22.370Z,45.82
2022-07-25T06:21:53.918Z,45.87
2022-07-25T06:22:25.430Z,45.57
2022-07-25T06:22:56.983Z,45.79
2022-07-25T06:23:28.520Z,45.62
2022-07-25T06:23:59.959Z,45.86
2022-07-25T06:24:31.449Z,45.50
2022-07-25T06:25:02.957Z,45.64
2022-07-25T06:25:34.586Z,45.48
2022-07-25T06:26:06.179Z,45.60
2022-07-25T06:26:37.663Z,45.64
2022-07-25T06:27:09.110Z,45.55
2022-07-25T06:27:40.615Z,45.75
2022-07-25T06:28:12.153Z,45.82
2022-07-25T06:28:49.674Z,45.56
2022-07-25T06:29:21.110Z,45.56
2022-07-25T06:29:52.682Z,45.75
2022-07-25T06:30:24.142Z,45.88
2022-07-25T06:30:55.620Z,45.50
2022-07-25T06:31:27.091Z,45.61
2022-07-25T06:31:58.564Z,45.80
2022-07-25T06:32:29.981Z,45.58
2022-07-25T06:33:01.370Z,45.86
2022-07-25T06:33:32.821Z,45.72
2022-07-25T06:34:04.432Z,45.49
2022-07-25T06:34:36.104Z,45.80
2022-07-25T06:35:07.515Z,45.53
2022-07-25T06:35:38.957Z,45.58
2022-07-25T06:36:10.421Z,45.54
2022-07-25T06:36:41.986Z,45.74
2022-07-25T06:37:13.432Z,45.82
2022-07-25T06:37:44.867Z,45.86
2022-07-25T06:38:16.305Z,45.50
2022-07-25T06:38:47.749Z,45.55
2022-07-25T06:39:20.131Z,45.57
2022-07-25T06:39:51.591Z,45.52
2022-07-25T06:40:23.000Z,45.54
2022-07-25T06:40:54.416Z,45.50
2022-07-25T06:41:25.844Z,45.87
2022-07-25T06:41:57.279Z,45.83
2022-07-25T06:42:28.719Z,45.55
2022-07-25T06:43:00.112Z,45.51
2022-07-25T06:43:31.548Z,45.71
2022-07-25T06:44:03.266Z,45.55
2022-07-25T06:44:34.773Z,45.82
2022-07-25T06:45:06.212Z,45.56
2022-07-25T06:45:37.655Z,45.81
2022-07-25T06:46:09.132Z,45.58
2022-07-25T06:46:40.680Z,45.87
2022-07-25T06:47:12.235Z,45.98
2022-07-25T06:47:43.651Z,45.57
2022-07-25T06:48:15.145Z,45.66
2022-07-25T06:48:46.624Z,45.49
2022-07-25T06:49:18.164Z,45.55